Florida AWOS List, Phone Numbers

USA |  
| Search AWOS

Rocky Mountain States: Montana | Wyoming | Colorado | New Mexico

Complete weather reports: Florida

Legend: KFNL = METAR available Follow your local AWOS on AV Mobile = METAR available on AV Mobile
Station Florida Location Frequency Phone
KAQQICAO ID KAQQ Apalachicola, Apalachicola
KAAFFAA ID AAF, ASOS, KAAF 220053Z AUTO 21008KT 10SM BKN015 BKN020 OVC034 22/22 A2970 Follow KAAF on AV Mobile APALACHICOLA MUNICIPAL AIRPORT 119.925 850-653-8271
KNAEICAO ID KNAE Astor, Bombing Range Detachment Astor
KAVOFAA ID AVO, AWOS-3 AVON PARK 118.725 863-453-4223
KAGRFAA ID AGR Avon Park Gunnery Range
KBOWFAA ID BOW, AWOS-3, KBOW 220135Z AUTO 20006KT 10SM CLR 21/17 A2985 RMK AO2 Follow KBOW on AV Mobile Bartow Municipal 123.775 863-533-9004
F95FAA ID F95, AWOS-AV, KMHL 220200Z AUTO 06005KT 10SM CLR 10/07 A2954 RMK AO2 Follow  on AV Mobile BLOUNTSTOWN 119.350 850-674-1347
KBCTFAA ID BCT, AWOS-3, KBCT 220047Z 21010KT 10SM CLR 23/17 A2989 Follow KBCT on AV Mobile Boca Raton, Boca Raton Airport 121.125 561-391-2696
K1J0FAA ID 1J0, K1J0 220127Z AUTO 00000KT 10SM TS BKN021 OVC026 18/18 A2966 RMK AO2 TSB24 T01780178 $ Follow K1J0 on AV Mobile TRI COUNTY AIRPORT
KBKVFAA ID BKV, ASOS, KBKV 220053Z AUTO 18009KT 10SM SCT049 22/17 A2983 RMK AO2 SLP101 T02220172 Follow KBKV on AV Mobile BROOKSVILLE HERNANDO CO AIRPORT 134.725 352-799-5881
K1J4ICAO ID K1J4 Cape San Blas Coast Guard Station
KNZCICAO ID KNZC Cecil, Naval Air Station
KCLWFAA ID CLW, AWOS-3P, KCLW 220135Z AUTO 19008KT 10SM OVC041 22/18 A2982 RMK AO2 Follow KCLW on AV Mobile CLEARWATER 119.225 727-449-2184
2ISFAA ID 2IS, AWOS-3, KMHL 220200Z AUTO 06005KT 10SM CLR 10/07 A2954 RMK AO2 Follow  on AV Mobile CLEWISTON 124.175 863-983-7020
KX53ICAO ID KX53 Clewiston
KCOFFAA ID COF, KCOF 220058Z AUTO 20008KT 10SM CLR 23/16 A2984 RMK AO2 SLP109 T02340161 TSNO $ Follow KCOF on AV Mobile Cocoa / Patrick Air Force Base
KXMRFAA ID XMR, KXMR 220058Z AUTO 18006KT 10SM CLR 21/17 A2983 RMK AO2 SLP105 T02140171 $ Follow KXMR on AV Mobile Cocoa Beach, Cape Canaveral Air Force Station Skid Strip
KCEWFAA ID CEW, ASOS, KCEW 220131Z AUTO 05003KT 10SM VCTS SCT014 BKN020 OVC027 18/17 A2962 Follow KCEW on AV Mobile CRESTVIEW SIKES AIRPORT 119.275 850-682-1237
KEGIFAA ID EGI, KEGI 220138Z AUTO 12005KT 10SM -RA BKN013 BKN018 19/18 A2960 RMK AO2 TSNO $ Follow KEGI on AV Mobile Duke Field / Eglin Auxiliary
KCTYFAA ID CTY, KCTY 220110Z AUTO 18014G18KT 10SM BKN023 OVC030 22/19 A2977 Follow KCTY on AV Mobile CROSS CITY AIRPORT
KCGCFAA ID CGC, AWOS-3, KCGC 220135Z AUTO 17003KT 10SM SCT050 SCT085 22/15 A2980 RMK AO2 LTG DSNT N Follow KCGC on AV Mobile CRYSTAL RIVER 118.325 352-563-6600
KDABFAA ID DAB, ASOS, KDAB 220053Z 00000KT 10SM FEW250 21/16 A2983 Follow KDAB on AV Mobile DAYTONA BEACH INTERNATIONAL 386-253-7469
54JFAA ID 54J, AWOS-3P, KMHL 220200Z AUTO 06005KT 10SM CLR 10/07 A2954 RMK AO2 Follow  on AV Mobile DEFUNIAK SPRINGS 118.725 850-892-0147
KDEDFAA ID DED, AWOS-3, KDED 220135Z AUTO 21004KT 10SM SCT090 23/16 A2983 RMK AO2 Follow KDED on AV Mobile DELAND 119.575 386-740-5811
KDTSFAA ID DTS, ASOS, KDTS 220056Z AUTO VRB03KT 6SM BR BKN008 OVC013 22/21 A2963 RMK AO2 LTG DSNT NE CIG 008V011 T02220211 Follow KDTS on AV Mobile DESTIN-FT WALTON BEACH AIRPORT 133.925 850-654-7128
KX91ICAO ID KX91 Egmont Key Coast Guard Station
KFHBFAA ID FHB, AWOS-3, KFHB 220115Z AUTO 24007KT 5SM SCT024 SCT045 OVC065 18/17 A2982 RMK AO1 LTG DSNT W AND NW Follow KFHB on AV Mobile FERNANDINA BEACH 118.075 904-277-7323
KFXEFAA ID FXE, ASOS, KFXE 220053Z 18008KT 10SM CLR 23/17 A2989 Follow KFXE on AV Mobile FORT LAUDERDALE EXECUTIVE 954-772-2537
KFLLFAA ID FLL, ASOS, KFLL 220053Z 18007KT 10SM CLR 23/18 A2989 Follow KFLL on AV Mobile FORT LAUDERDALE/HOLLYWOOD 954-359-7857
KFMYFAA ID FMY, ASOS, KFMY 220053Z 18004KT 10SM CLR 22/17 A2986 RMK AO2 SLP115 T02220167 Follow KFMY on AV Mobile FORT MYERS PAGE FIELD 239-936-2318
KRSWFAA ID RSW, ASOS, KRSW 220053Z AUTO 16006KT 10SM CLR 22/16 A2987 Follow KRSW on AV Mobile FORT MYERS SW FL INTERNATIONAL AIRPORT 239-561-0966
KX82ICAO ID KX82 Fort Pierce Coast Guard Station
KFPRFAA ID FPR, ASOS, KFPR 220053Z 21005KT 10SM CLR 23/17 A2987 Follow KFPR on AV Mobile FORT PIERCE ST LUCIE 772-489-4281
KX86ICAO ID KX86 Fowey Rocks Coast Guard Station
KX89ICAO ID KX89 Ft. Myers Beach Coast Guard Station
KGNVFAA ID GNV, ASOS, KGNV 220053Z AUTO 19010KT 10SM FEW043 BKN060 OVC075 29/13 A2980 Follow KGNV on AV Mobile GAINESVILLE REGIONAL AIRPORT 352-335-8672
KHWOFAA ID HWO, ASOS, KHWO 220053Z 16008KT 10SM CLR 22/16 A2991 RMK AO2 SLP127 T02220161 Follow KHWO on AV Mobile HOLLYWOOD NORTH PERRY AIRPORT 954-983-5904
X51FAA ID X51, AWOS-3, KMHL 220200Z AUTO 06005KT 10SM CLR 10/07 A2954 RMK AO2 Follow  on AV Mobile HOMESTEAD 118.375 (305) 247-2791
KHSTFAA ID HST, KHST 220058Z AUTO 00000KT 10SM CLR 19/19 A2990 RMK AO2 SLP128 T01900190 Follow KHST on AV Mobile Homestead Air Force Base
KIMMFAA ID IMM, AWOS-3, KIMM 161355Z AUTO 10007KT FEW016 A3015 RMK A01 P000 Follow KIMM on AV Mobile IMMOKALEE 118.525 239-657-2038
KINFFAA ID INF, AWOS-3, KINF 220135Z AUTO 20007KT 10SM SCT049 OVC085 22/17 A2983 RMK AO2 Follow KINF on AV Mobile INVERNESS 119.975 352-341-0264
KX84ICAO ID KX84 Islamorada Coast Guard Station
KHEGFAA ID HEG, AWOS-3 JACKSONVILLE 119.275 904-695-0334
KCRGFAA ID CRG, ASOS, KCRG 220053Z 32011KT 10SM OVC075 17/16 A2983 RMK AO2 RAB15E33 SLP100 P0000 T01720161 Follow KCRG on AV Mobile JACKSONVILLE CRAIG MUN 904-646-4670
KJAXFAA ID JAX, ASOS, KJAX 220056Z 33006KT 3SM +RA BR BKN036 BKN049 OVC070 17/17 A2983 Follow KJAX on AV Mobile JACKSONVILLE INTERNATIONAL 904-741-4304
KNIPFAA ID NIP, KNIP 220053Z 32008KT 10SM -RA BKN060 OVC080 18/16 A2983 RMK AO2 PK WND 33027/0005 RAB08 SLP098 T1 SET P0000 T01830161 $ Follow KNIP on AV Mobile JACKSONVILLE NAVAL AIR STN
KVQQFAA ID VQQ, AWOS-3, KVQQ 220050Z 36006KT 10SM BKN055 17/17 A2982 Follow KVQQ on AV Mobile Jacksonville, Cecil Field Airport 125.275 904-778-6934
KNENFAA ID NEN NOLF WHITEHOUSE FIELD, FL
KX80ICAO ID KX80 Jupiter Inlet Coast Guard Station
KEYWFAA ID EYW, ASOS, KEYW 220053Z 13007KT 10SM CLR 25/22 A2990 Follow KEYW on AV Mobile KEY WEST INTERNATIONAL AIRPORT 119.65 305-292-4046
KNQXFAA ID NQX, KNQX 220053Z 14007KT 10SM SCT042 SCT050 BKN070 24/21 A2989 RMK AO2 SLP121 T02440206 $ Follow KNQX on AV Mobile KEY WEST NAVAL AIR STATION
K42JFAA ID 42J, AWOS-3, K42J 220135Z AUTO 18004KT 10SM OVC044 23/12 A2982 RMK AO1 TSNO Follow K42J on AV Mobile KEYSTONE HEIGHTS 124.275 352-473-8273
KLCQFAA ID LCQ, AWOS-3, KLCQ 220115Z AUTO 00000KT 10SM VCTS SCT006 BKN023 OVC120 17/17 A2979 RMK AO2 LTG DSNT W THRU NE Follow KLCQ on AV Mobile LAKE CITY 120.675 386-754-9366
X07FAA ID X07, AWOS-3, KMHL 220200Z AUTO 06005KT 10SM CLR 10/07 A2954 RMK AO2 Follow  on AV Mobile LAKE WALES 124.225 863-678-1334
KX81ICAO ID KX81 Lake Worth Inlet
KLALFAA ID LAL, AWOS-3PT, KLAL 220050Z 20005KT 10SM SKC 21/16 A2985 Follow KLAL on AV Mobile Lakeland Regional 118.025 863-834-2030
KLEEFAA ID LEE, ASOS, KLEE 220053Z AUTO 22005KT 10SM FEW085 23/16 A2983 RMK AO2 SLP098 T02280156 Follow KLEE on AV Mobile LEESBURG REGIONAL AIRPORT 134.325 352-787-1565
K24JFAA ID 24J, AWOS-3, K24J 220135Z AUTO 00000KT 9SM VCTS FEW004 BKN026 OVC033 17/17 A2980 RMK A01 LTG DSNT NE AND NW Follow K24J on AV Mobile LIVE OAK 118.225 386-362-1731
KX88ICAO ID KX88 Marathon Coast Guard Station
KMTHFAA ID MTH, ASOS, KMTH 220053Z AUTO 14005KT 10SM CLR 26/20 A2990 RMK AO2 SLP125 T02610200 $ Follow KMTH on AV Mobile MARATHON AIRPORT 135.525 305-743-8373
KMKYFAA ID MKY, AWOS-3, KMKY 220135Z AUTO 16005KT 10SM FEW050 10/ A2988 RMK AO1 Follow KMKY on AV Mobile MARCO ISLAND 120.075 239-394-8187
KMAIFAA ID MAI, ASOS, KMAI 220133Z AUTO 00000KT 10SM SCT020 SCT026 BKN032 18/18 A2966 RMK AO2 LTG DSNT W T01830178 Follow KMAI on AV Mobile MARIANNA MUNICIPAL AIRPORT 133.525 850-482-6082
KHRTFAA ID HRT, KHRT 220137Z 16007KT 10SM OVC007 20/16 A2958 RMK RAE06DZB06E07RAB07E08 PRESFR Follow KHRT on AV Mobile Hurlburt Field
KNRBFAA ID NRB, KNRB 220052Z AUTO 31007G16KT 290V360 10SM FEW050 FEW060 OVC080 18/16 A2984 RMK AO2 RAE2355B29E42 TSB02E21 SLP103 P0000 T01830156 Follow KNRB on AV Mobile MAYPORT NAVAL AIR FACILITY
KMLBFAA ID MLB, ASOS, KMLB 220053Z AUTO 18006KT 10SM CLR 23/16 A2985 Follow KMLB on AV Mobile MELBOURNE INTERNATIONAL 321-723-7403
KCOIFAA ID COI, AWOS-3 Merritt Island, Merritt Island Airport 119.025 321-986-8864
KTNTFAA ID TNT, AWOS-3 MIAMI 119.075 (239) 695-9198
KX87ICAO ID KX87 Miami Beach Coast Guard Station
KAMXICAO ID KAMX Miami Nexrad
KTMBFAA ID TMB, ASOS, KTMB 220053Z 16003KT 10SM CLR 22/16 A2991 Follow KTMB on AV Mobile KENDALL-TAMIAMI EXEC AIRPORT 305-235-1332
KMIAFAA ID MIA, ASOS, KMIA 220053Z 16004KT 10SM FEW042 24/16 A2991 Follow KMIA on AV Mobile MIAMI INTERNATIONAL AIRPORT 305-870-0235
KOPFFAA ID OPF, KOPF 220053Z 18005KT 10SM CLR 22/16 A2991 Follow KOPF on AV Mobile MIAMI OPA LOCKA AIRPORT
KNFJFAA ID NFJ CHOCTAW, WHITING FIELD, NOLF
KNSEFAA ID NSE, KNSE 220106Z AUTO 10006KT 10SM -RA BKN014 OVC021 18/17 A2960 RMK AO2 P0000 T01830172 $ Follow KNSE on AV Mobile MILTON WHITING FIELD (NORTH)
KNDZFAA ID NDZ, KNDZ 220120Z AUTO 10007KT 10SM TS BKN013 OVC019 21/18 A2959 RMK AO2 TSB20 PRESFR T02060178 Follow KNDZ on AV Mobile MILTON WHITING FIELD (SOUTH)
KAPFFAA ID APF, ASOS, KAPF 220053Z 14004KT 10SM CLR 22/17 A2987 Follow KAPF on AV Mobile NAPLES MUNICIPAL AIRPORT 239-643-9886
KRRFICAO ID KRRF New Port Richey, Tampa Bay Executive Airport
KEVBFAA ID EVB, AWOS-3, KEVB 220047Z 18008KT 10SM FEW045 23/16 A2982 Follow KEVB on AV Mobile New Smyrna Beach, New Smyrna Beach Municipal Airport 124.625 386-409-4705
KOCFFAA ID OCF, AWOS-3, KOCF 220135Z 18008KT 10SM FEW075 OVC090 21/14 A2982 RMK AO1 Follow KOCF on AV Mobile Ocala, Ocala International Airport-Jim Taylor Field 128.125 352-237-8525
KOBEFAA ID OBE, AWOS-3, KOBE 220135Z AUTO 20008KT 10SM CLR 20/16 A2987 RMK AO2 Follow KOBE on AV Mobile Okeechobee County Airport 118.675 863-467-1148
KORLFAA ID ORL, ASOS, KORL 220053Z 21008KT 10SM CLR 24/13 A2983 RMK AO2 SLP103 T02390133 Follow KORL on AV Mobile ORLANDO EXECUTIVE AIRPORT 407-658-6753
KMCOFAA ID MCO, ASOS, KMCO 220053Z 22006KT 10SM BKN250 22/14 A2984 Follow KMCO on AV Mobile ORLANDO INTERNATIONAL AIRPORT 407-855-5235
KSFBFAA ID SFB, ASOS, KSFB 220053Z 21005KT 10SM CLR 24/14 A2982 Follow KSFB on AV Mobile ORLANDO SANFORD AIRPORT 407-321-9384
KISMFAA ID ISM, AWOS-3, KISM 220056Z 22006KT 10SM CLR 23/15 A2985 RMK AO2 SLP109 T02280150 Follow KISM on AV Mobile Orlando, Kissimmee Municipal Airport 128.775 407-847-0533
KOMNFAA ID OMN, AWOS-3, KOMN 212350Z 21005KT 7SM SKC 24/16 A2981 RMK LAST Follow KOMN on AV Mobile Ormond Beach, Ormond Beach Municipal Airport 118.475 386-615-7084
K28JFAA ID 28J, AWOS-3, K28J 220135Z AUTO 22006KT 10SM FEW048 BKN055 OVC080 24/13 A2982 RMK AO2 Follow K28J on AV Mobile PALATKA 119.92 386-312-2212
KFINFAA ID FIN, AWOS-3, KFIN 212350Z 00000KT 10SM SCT055 23/16 A2981 Follow KFIN on AV Mobile PALM COAST 128.325 386-437-7334
KECPFAA ID ECP, ASOS, KECP 220053Z 15006KT 8SM OVC006 21/20 A2965 Follow KECP on AV Mobile PANAMA CITY 119.975 850-235-7857
KPFNICAO ID KPFN, KPFN 030253Z VRB03KT 10SM FEW023 25/23 A2989 Follow KPFN on AV Mobile PANAMA CITY-BAY CTY INTERNATIONAL
KPAMFAA ID PAM, KPAM 220056Z AUTO 18009KT 9SM CLR 21/20 A2967 RMK AO2 SLP050 T02130204 $ Follow KPAM on AV Mobile Tyndall Air Force Base
KPNSFAA ID PNS, ASOS, KPNS 220108Z 10007KT 10SM -RA OVC009 19/18 A2958 Follow KPNS on AV Mobile PENSACOLA REGIONAL AIRPORT 850-436-4799
KNPAFAA ID NPA, KNPA 220130Z AUTO 17012KT 4SM TS BR OVC006 21/20 A2956 RMK AO2 RAE29 TSB24B25 P0000 T02110200 $ Follow KNPA on AV Mobile Pensacola, Naval Air Station
K40JFAA ID 40J, AWOS-3PT, K40J 220135Z AUTO 17008G14KT 10SM VCTS SCT010 OVC023 23/20 A2975 RMK AO2 LTG DSNT NE T02250202 Follow K40J on AV Mobile PERRY-FOLEY AIRPORT 118.375 850-838-3526
FA54FAA ID FA54, Belfort CORAL CREEK
KPCMFAA ID PCM, AWOS-3, KPCM 220135Z AUTO 17006KT 10SM SCT045 SCT050 22/18 A2985 RMK AO2 Follow KPCM on AV Mobile Plant City, Plant City Municipal Airport 120.025 813-764-8259
KPMPFAA ID PMP, ASOS, KPMP 220053Z 18008KT 10SM CLR 24/18 A2989 RMK AO2 SLP122 T02390178 Follow KPMP on AV Mobile POMPANO BEACH AIRPARK 954-783-3720
K1J3ICAO ID K1J3 Ponce De Leon Inlet
KPGDFAA ID PGD, ASOS, KPGD 220053Z AUTO 17007KT 10SM CLR 20/16 A2987 RMK AO2 SLP116 T02000161 Follow KPGD on AV Mobile PUNTA GORDA CHARLOTTE COUNTY 135.675 941-639-0076
K2J9FAA ID 2J9, AWOS-3, K2J9 041455Z AUTO CLR 25/16 A3014 RMK AO1 Follow K2J9 on AV Mobile QUINCY 118.975 (850) 627-6264
K1J5ICAO ID K1J5 Santa Rosa Coast Guard Station
KSRQFAA ID SRQ, ASOS, KSRQ 220053Z AUTO 18016KT 10SM CLR 22/18 A2981 Follow KSRQ on AV Mobile SARASOTA/BRADENTON INTERNATIONAL . 124.375 941-359-0117
KSEFFAA ID SEF, AWOS-3 SEBRING 119.475 863-655-6424
KSGJFAA ID SGJ, AWOS-3, KSGJ 220058Z 35013KT 10SM BKN050 BKN060 OVC095 21/16 A2984 RMK AO2 SLP105 T02110156 Follow KSGJ on AV Mobile St. Augustine, St. Augustine Airport 904-824-7084
KPIEFAA ID PIE, ASOS, KPIE 220053Z 18009KT 10SM BKN050 22/18 A2982 Follow KPIE on AV Mobile ST PETERSBURG/CLEARWATER 727-531-3456
KSPGFAA ID SPG, ASOS, KSPG 220053Z 21010KT 10SM FEW050 22/19 A2981 RMK AO2 SLP093 T02170189 Follow KSPG on AV Mobile ST PETERSBURG WHITTED AIRPORT 118.875 727-821-4334
KSUAFAA ID SUA, AWOS-3, KSUA 220047Z 21005KT 7SM SKC 25/18 A2989 Follow KSUA on AV Mobile Stuart, Witham Field Airport 772-692-7399
KTLHFAA ID TLH, ASOS, KTLH 220053Z 11005KT 10SM BKN018 OVC022 18/18 A2972 Follow KTLH on AV Mobile TALLAHASSEE REGIONAL AIRPORT 850-576-3665
KTBWICAO ID KTBW Tampa Bay Area
KMCFFAA ID MCF, KMCF 220058Z AUTO 26007KT 10SM CLR 21/20 A2982 RMK AO2 SLP101 T02100202 Follow KMCF on AV Mobile Macdill Air Force Base, Fl.
KTPAFAA ID TPA, ASOS, KTPA 220053Z 17006KT 10SM FEW055 SCT090 SCT250 23/17 A2983 Follow KTPA on AV Mobile TAMPA INTERNATIONAL AIRPORT 813-873-7228
KTPFFAA ID TPF, AWOS-3, KTPF 220115Z AUTO 17008KT 10SM SCT044 BKN055 OVC110 23/20 A2983 RMK AO2 Follow KTPF on AV Mobile Tampa, Peter O Knight Airport 118.925 813-251-6824
KVDFFAA ID VDF, AWOS-3, KVDF 220135Z AUTO 17007KT 10SM BKN050 22/17 A2983 RMK AO2 Follow KVDF on AV Mobile Tampa, Vandenberg Airport 121.125 813-630-0924
KVLGICAO ID KVLG The Villages
KVVGICAO ID KVVG, KVVG 220115Z AUTO 00000KT 10SM 22/18 A2973 RMK A01 Follow KVVG on AV Mobile The Villages
KX68ICAO ID KX68 Titusville, NASA Shuttle Landing Facility
KTIXFAA ID TIX, KTIX 220050Z 19006KT 7SM SKC 21/15 A2984 Follow KTIX on AV Mobile Titusville
KX21FAA ID X21, AWOS-3 Titusville, Arthur Dunn Air Park 119.725 321-385-0383
KTTSFAA ID TTS, KTTS 220058Z AUTO 18005KT 10SM CLR 22/16 A2982 RMK AO2 SLP102 T02170161 $ Follow KTTS on AV Mobile Titusville, NASA Shuttle Landing Facility
KVPSFAA ID VPS, KVPS 220130Z 13006KT 10SM VCTS OVC007CB 20/19 A2960 RMK AO2A TS 6NW MOV NE $ Follow KVPS on AV Mobile Valparaiso / Eglin Air Force Base
KVNCFAA ID VNC, AWOS-3, KVNC 220135Z AUTO 16012KT 10SM CLR 22/20 A2984 RMK AO2 Follow KVNC on AV Mobile VENICE 119.275
KX90ICAO ID KX90 Venice Long Range Navigation
KVRBFAA ID VRB, ASOS, KVRB 220053Z 21005KT 10SM CLR 23/17 A2987 Follow KVRB on AV Mobile VERO BEACH MUNICIPAL AIRPORT 772-978-9535
F45FAA ID F45, AWOS-3, KMHL 220200Z AUTO 06005KT 10SM CLR 10/07 A2954 RMK AO2 Follow  on AV Mobile WEST PALM BEACH 119.975 561-630-6932
KLNAFAA ID LNA, AWOS-3 WEST PALM BEACH 119.925 561-964-0308
KPBIFAA ID PBI, ASOS, KPBI 220053Z 17005KT 10SM CLR 23/17 A2989 Follow KPBI on AV Mobile PALM BEACH INTERNATIONAL 123.75 561-683-2548
FD38FAA ID FD38, Belfort WELLINGTON AERO CLUB
KX60FAA ID X60, AWOS-3, KX60 220135Z AUTO 17006G11KT 10SM CLR 24/16 A2980 RMK A01 Follow KX60 on AV Mobile WILLISTON 118.425 352-528-9949
KGIFFAA ID GIF, ASOS, KGIF 220053Z AUTO 21008KT 10SM CLR 22/14 A2985 RMK AO2 SLP107 T02220144 Follow KGIF on AV Mobile WINTER HAVENS GILBERT AIRPORT 133.675 863-956-2097
KZPHFAA ID ZPH, ASOS, KZPH 220135Z AUTO 18007KT 10SM CLR 21/16 A2984 RMK AO2 T02130161 Follow KZPH on AV Mobile ZEPHYRHILLS 118.975 813-780-0031

Click on the AV Mobile icon AV Mobile icon by any station to follow that AWOS feed on AirportView.net Mobile.

Garmin Weather Avemco Insurance Company